Terminal Aerodrome Forecast
Issued by NWS

Home | Current Version | Previous Version | Text Only | Print | Product List | Glossary On
Versions: 1 2 3 4 5 6 7 8 9 10 11 12 13 14 15 16 17 18 19 20 21 22 23 24 25 26
529
FTUS41 KRLX 232320
TAFCKB
TAF
KCKB 232320Z 2400/2424 32004KT P6SM SKC
     FM240500 00000KT 5SM BR FEW001
     FM240700 00000KT 1/4SM FG VV001
     FM241230 00000KT 2SM BR SCT001
     FM241300 00000KT P6SM SCT050=

USA.gov is the U.S. government's official web portal to all federal, state and local government web resources and services.